Time;durP1;ratioP1;P1;durP2;ratioP2;P2;SDS_P1;SDS_P2;PMS_P1;PMS_P2;Temp;Humidity;BMP_temperature;BMP_pressure;BME280_temperature;BME280_humidity;BME280_pressure;Samples;Min_cycle;Max_cycle;Signal;HPM_P1;HPM_P2
2022/07/22 00:02:12;;;;;;;7.97;7.30;;;18.00;99.90;;;;;;4973750;28;20207;-73
2022/07/22 00:04:38;;;;;;;8.20;6.97;;;18.00;99.90;;;;;;4974704;28;20199;-73
2022/07/22 00:07:04;;;;;;;8.27;6.97;;;18.00;99.90;;;;;;4975035;28;20180;-72
2022/07/22 00:09:29;;;;;;;9.07;7.07;;;18.00;99.90;;;;;;4975116;28;20218;-74
2022/07/22 00:11:55;;;;;;;9.07;8.20;;;18.00;99.90;;;;;;4974270;28;20753;-75
2022/07/22 00:14:21;;;;;;;10.43;8.10;;;17.90;99.90;;;;;;4974529;28;20204;-74
2022/07/22 00:16:46;;;;;;;9.67;7.37;;;17.90;99.90;;;;;;4974536;28;20256;-74
2022/07/22 00:19:12;;;;;;;7.80;7.13;;;17.90;99.90;;;;;;4974839;28;20235;-74
2022/07/22 00:21:38;;;;;;;10.80;7.40;;;17.90;99.90;;;;;;4974245;28;20235;-74
2022/07/22 00:24:04;;;;;;;7.90;6.97;;;17.90;99.90;;;;;;4974544;28;20831;-74
2022/07/22 00:26:30;;;;;;;8.23;7.53;;;17.90;99.90;;;;;;4974634;28;20183;-74
2022/07/22 00:28:55;;;;;;;8.03;7.20;;;17.80;99.90;;;;;;4976169;28;20430;-72
2022/07/22 00:31:21;;;;;;;7.33;6.63;;;17.80;99.90;;;;;;4973597;28;21105;-71
2022/07/22 00:33:46;;;;;;;10.20;7.90;;;17.70;99.90;;;;;;4973072;28;20165;-74
2022/07/22 00:36:12;;;;;;;8.47;7.67;;;17.80;99.90;;;;;;4974028;28;20642;-74
2022/07/22 00:38:38;;;;;;;9.63;7.07;;;17.70;99.90;;;;;;4974109;28;20646;-74
2022/07/22 00:41:04;;;;;;;9.93;7.90;;;17.70;99.90;;;;;;4973348;28;20712;-74
2022/07/22 00:43:57;;;;;;;8.07;7.17;;;17.70;99.90;;;;;;4974038;28;20407;-73
2022/07/22 00:46:23;;;;;;;7.53;6.87;;;17.70;99.90;;;;;;4973589;28;20191;-73
2022/07/22 00:48:49;;;;;;;10.00;7.67;;;17.70;99.90;;;;;;4974011;28;20425;-74
2022/07/22 00:51:15;;;;;;;7.53;6.93;;;17.70;99.90;;;;;;4972609;28;20764;-71
2022/07/22 00:53:41;;;;;;;9.37;8.33;;;17.60;99.90;;;;;;4973724;28;20708;-74
2022/07/22 00:56:06;;;;;;;8.70;7.90;;;17.60;99.90;;;;;;4973527;28;20416;-74
2022/07/22 00:58:32;;;;;;;12.00;8.10;;;17.60;99.90;;;;;;4974113;28;20620;-73
2022/07/22 02:31:33;;;;;;;9.60;8.70;;;16.90;99.90;;;;;;5715100;23;20526;-74
2022/07/22 02:33:58;;;;;;;10.27;9.27;;;16.90;99.90;;;;;;4969387;28;20490;-75
2022/07/22 02:36:24;;;;;;;10.23;8.60;;;16.90;99.90;;;;;;4962638;28;20191;-75
2022/07/22 02:38:49;;;;;;;11.50;9.20;;;16.90;99.90;;;;;;4971855;28;20207;-74
2022/07/22 02:41:15;;;;;;;10.73;9.37;;;16.90;99.90;;;;;;4969870;28;20218;-71
2022/07/22 02:43:40;;;;;;;13.60;9.70;;;16.90;99.90;;;;;;4971765;28;20176;-74
2022/07/22 02:46:06;;;;;;;9.90;9.03;;;16.90;99.90;;;;;;4970734;28;20187;-74
2022/07/22 02:48:31;;;;;;;10.70;9.73;;;16.90;99.90;;;;;;4971710;28;20306;-74
2022/07/22 02:50:57;;;;;;;10.27;9.00;;;16.80;99.90;;;;;;4969795;28;20564;-73
2022/07/22 02:53:22;;;;;;;10.30;9.20;;;16.80;99.90;;;;;;4971165;28;20184;-74
2022/07/22 02:55:48;;;;;;;9.80;8.80;;;16.80;99.90;;;;;;4970849;28;20224;-74
2022/07/22 02:58:13;;;;;;;10.53;9.60;;;16.80;99.90;;;;;;4971493;28;20180;-76
2022/07/22 03:00:39;;;;;;;12.30;9.77;;;16.80;99.90;;;;;;4970722;28;20528;-74
2022/07/22 03:03:05;;;;;;;10.73;9.50;;;16.70;99.90;;;;;;4970248;28;20179;-75
2022/07/22 03:05:30;;;;;;;11.60;10.37;;;16.70;99.90;;;;;;4971228;28;20204;-74
2022/07/22 03:07:56;;;;;;;12.30;11.10;;;16.70;99.90;;;;;;4971136;28;20312;-73
2022/07/22 03:10:21;;;;;;;12.57;9.93;;;16.70;99.90;;;;;;4971271;28;20180;-74
2022/07/22 03:12:47;;;;;;;10.67;9.47;;;16.70;99.90;;;;;;4970704;28;20207;-74
2022/07/22 03:15:13;;;;;;;12.43;10.63;;;16.70;99.90;;;;;;4970740;28;20315;-74
2022/07/22 03:17:38;;;;;;;12.63;10.63;;;16.70;99.90;;;;;;4970977;28;20183;-73
2022/07/22 03:20:09;;;;;;;11.17;10.07;;;16.70;99.90;;;;;;4971430;28;20641;-76
2022/07/22 03:22:34;;;;;;;12.43;11.17;;;16.60;99.90;;;;;;4970567;28;20231;-72
2022/07/22 03:25:01;;;;;;;12.50;11.20;;;16.60;99.90;;;;;;4974511;28;20451;-74
2022/07/22 03:27:26;;;;;;;14.97;10.50;;;16.60;99.90;;;;;;4974932;28;20312;-75
2022/07/22 03:29:52;;;;;;;12.50;10.87;;;16.70;99.90;;;;;;4974646;28;20475;-74
2022/07/22 03:32:18;;;;;;;13.70;10.80;;;16.70;99.90;;;;;;4973040;28;20621;-75
2022/07/22 03:34:44;;;;;;;12.20;11.10;;;16.70;99.90;;;;;;4974513;28;20658;-74
2022/07/22 03:37:09;;;;;;;15.40;10.73;;;16.70;99.90;;;;;;4974804;28;20186;-74
2022/07/22 03:39:35;;;;;;;13.73;11.23;;;16.70;99.90;;;;;;4974295;28;20407;-74
2022/07/22 03:42:00;;;;;;;11.70;10.50;;;16.70;99.90;;;;;;4973261;28;20196;-74
2022/07/22 03:44:26;;;;;;;12.90;11.60;;;16.60;99.90;;;;;;4956646;28;20176;-74
2022/07/22 03:46:52;;;;;;;12.20;10.90;;;16.60;99.90;;;;;;4974220;28;20195;-74
2022/07/22 03:49:17;;;;;;;12.63;11.33;;;16.60;99.90;;;;;;4974386;28;20653;-75
2022/07/22 03:51:43;;;;;;;13.37;11.60;;;16.60;99.90;;;;;;4973170;28;20204;-74
2022/07/22 03:54:09;;;;;;;12.00;10.80;;;16.60;99.90;;;;;;4974251;28;20211;-74
2022/07/22 03:56:34;;;;;;;12.90;11.23;;;16.60;99.90;;;;;;4974166;28;20267;-74
2022/07/22 03:59:00;;;;;;;17.67;12.50;;;16.60;99.90;;;;;;4974215;28;20758;-72
2022/07/22 04:01:25;;;;;;;13.17;11.83;;;16.60;99.90;;;;;;4972920;28;20703;-74
2022/07/22 04:03:51;;;;;;;13.80;12.40;;;16.60;99.90;;;;;;4974184;28;20217;-74
2022/07/22 04:06:17;;;;;;;12.43;11.13;;;16.60;99.90;;;;;;4973948;28;20176;-73
2022/07/22 04:08:42;;;;;;;12.90;11.60;;;16.60;99.90;;;;;;4973962;28;20219;-73
2022/07/22 04:11:08;;;;;;;14.83;12.00;;;16.70;99.90;;;;;;4973728;28;20427;-75
2022/07/22 04:13:33;;;;;;;11.43;9.97;;;16.80;99.90;;;;;;4973482;28;20557;-76
2022/07/22 04:15:59;;;;;;;13.37;12.13;;;16.80;99.90;;;;;;4973816;28;20214;-73
2022/07/22 04:18:25;;;;;;;12.43;11.13;;;16.90;99.90;;;;;;4974238;28;20198;-74
2022/07/22 04:20:50;;;;;;;13.53;12.10;;;16.90;99.90;;;;;;4972559;28;20180;-75
2022/07/22 04:23:16;;;;;;;12.47;11.17;;;16.90;99.90;;;;;;4973660;28;20193;-73
2022/07/22 04:25:42;;;;;;;13.27;11.97;;;16.90;99.90;;;;;;4973559;28;20302;-75
2022/07/22 04:28:07;;;;;;;15.87;11.80;;;16.90;99.90;;;;;;4974006;28;20207;-75
2022/07/22 04:30:33;;;;;;;12.67;11.37;;;16.90;99.90;;;;;;4972422;28;20176;-74
2022/07/22 04:32:58;;;;;;;16.37;12.50;;;16.90;99.90;;;;;;4973266;28;20207;-74
2022/07/22 04:35:24;;;;;;;15.90;11.57;;;17.00;99.90;;;;;;4972993;28;20243;-74
2022/07/22 04:37:50;;;;;;;14.97;13.37;;;17.10;99.90;;;;;;4973583;28;20226;-74
2022/07/22 04:40:15;;;;;;;13.83;11.40;;;17.10;99.90;;;;;;4973508;28;20172;-75
2022/07/22 04:42:41;;;;;;;14.77;12.13;;;17.20;99.90;;;;;;4972150;28;20196;-75
2022/07/22 04:45:07;;;;;;;13.00;11.80;;;17.30;99.90;;;;;;4973192;28;20239;-73
2022/07/22 04:47:32;;;;;;;13.37;11.93;;;17.30;99.90;;;;;;4973601;28;20187;-75
2022/07/22 04:49:58;;;;;;;15.73;12.20;;;17.40;99.90;;;;;;4973225;28;20769;-75
2022/07/22 04:52:23;;;;;;;15.87;14.13;;;17.40;99.90;;;;;;4972792;28;20266;-75
2022/07/22 04:54:49;;;;;;;13.97;12.57;;;17.50;99.90;;;;;;4972496;28;20196;-75
2022/07/22 04:57:14;;;;;;;15.10;13.53;;;17.50;99.90;;;;;;4972921;28;20275;-70
2022/07/22 04:59:40;;;;;;;15.03;12.60;;;17.60;99.90;;;;;;4972981;28;20176;-73
2022/07/22 05:02:06;;;;;;;14.20;12.80;;;17.70;99.90;;;;;;4972217;28;20196;-73
2022/07/22 05:04:31;;;;;;;16.33;12.30;;;17.80;99.90;;;;;;4973016;28;20172;-73
2022/07/22 05:06:57;;;;;;;13.17;11.77;;;17.80;99.90;;;;;;4972480;28;20412;-73
2022/07/22 05:09:22;;;;;;;14.63;13.13;;;17.90;99.90;;;;;;4972460;28;20226;-72
2022/07/22 05:11:48;;;;;;;16.30;13.93;;;18.00;99.90;;;;;;4972090;28;20200;-75
2022/07/22 05:14:13;;;;;;;13.00;11.90;;;18.10;99.90;;;;;;4972925;28;20704;-75
2022/07/22 05:16:39;;;;;;;14.20;12.70;;;18.20;99.90;;;;;;4972234;28;20256;-74
2022/07/22 05:19:05;;;;;;;12.87;11.57;;;18.50;99.90;;;;;;4972847;28;20216;-74
2022/07/22 05:21:31;;;;;;;12.90;11.50;;;19.00;99.90;;;;;;4972021;28;20228;-71
2022/07/22 05:23:56;;;;;;;13.80;12.40;;;19.50;99.90;;;;;;4966186;28;20441;-74
2022/07/22 05:26:22;;;;;;;14.33;12.50;;;20.00;99.90;;;;;;4968024;28;20497;-74
2022/07/22 05:28:48;;;;;;;18.43;11.80;;;20.60;99.90;;;;;;4967573;28;20188;-75
2022/07/22 05:31:13;;;;;;;14.20;11.20;;;21.10;99.90;;;;;;4968382;28;20505;-75
2022/07/22 05:33:39;;;;;;;12.10;10.63;;;21.50;99.90;;;;;;4970647;28;20557;-74
2022/07/22 05:36:05;;;;;;;14.57;11.43;;;21.70;99.90;;;;;;4970570;28;20565;-75
2022/07/22 05:38:34;;;;;;;12.77;11.53;;;22.10;99.90;;;;;;4954129;28;20263;-75
2022/07/22 05:40:59;;;;;;;20.13;11.40;;;22.40;99.90;;;;;;4970038;28;20447;-75
2022/07/22 05:43:25;;;;;;;14.13;11.70;;;22.70;99.90;;;;;;4971688;28;20511;-75
2022/07/22 05:45:50;;;;;;;10.67;9.57;;;22.90;99.90;;;;;;4971397;28;20231;-75
2022/07/22 05:48:16;;;;;;;12.60;10.93;;;23.10;99.90;;;;;;4972144;28;20191;-74
2022/07/22 05:50:41;;;;;;;13.70;12.03;;;23.30;99.90;;;;;;4970941;28;20668;-75
2022/07/22 05:53:07;;;;;;;13.83;11.13;;;23.50;99.90;;;;;;4972309;28;20191;-75
2022/07/22 05:55:32;;;;;;;12.03;10.80;;;23.70;99.90;;;;;;4971941;28;20366;-76
2022/07/22 05:57:58;;;;;;;11.10;10.10;;;23.60;99.90;;;;;;4971978;28;20646;-76
2022/07/22 06:00:23;;;;;;;12.53;9.80;;;23.60;99.90;;;;;;4971956;28;20179;-72
2022/07/22 06:02:49;;;;;;;12.37;11.07;;;23.90;99.90;;;;;;4971596;28;20570;-75
2022/07/22 06:05:14;;;;;;;12.30;11.00;;;24.20;99.90;;;;;;4953936;28;20184;-71
2022/07/22 06:07:40;;;;;;;12.90;11.50;;;24.30;99.90;;;;;;4972058;28;20199;-74
2022/07/22 06:10:05;;;;;;;13.80;10.13;;;24.60;99.90;;;;;;4971825;28;20180;-74
2022/07/22 06:12:31;;;;;;;11.40;10.30;;;24.90;99.90;;;;;;4971050;28;20296;-74
2022/07/22 06:14:56;;;;;;;17.20;11.30;;;25.10;99.90;;;;;;4971685;28;20301;-74
2022/07/22 06:17:22;;;;;;;14.00;11.30;;;25.10;99.90;;;;;;4971878;28;20191;-73
2022/07/22 06:19:48;;;;;;;11.40;10.30;;;25.10;99.90;;;;;;4971561;28;20180;-74
2022/07/22 06:22:13;;;;;;;10.73;9.63;;;25.40;99.90;;;;;;4971127;28;20200;-75
2022/07/22 06:24:39;;;;;;;11.77;10.47;;;25.50;99.90;;;;;;4971668;28;20180;-75
2022/07/22 06:27:04;;;;;;;12.83;11.47;;;25.60;99.90;;;;;;4971159;28;20667;-75
2022/07/22 06:29:30;;;;;;;11.77;10.57;;;25.60;99.90;;;;;;4971759;28;20200;-75
2022/07/22 06:31:55;;;;;;;13.70;10.70;;;25.70;99.90;;;;;;4970650;28;20220;-74
2022/07/22 06:34:21;;;;;;;13.43;12.20;;;25.90;99.90;;;;;;4971619;28;20204;-76
2022/07/22 06:36:46;;;;;;;12.07;10.67;;;26.10;99.90;;;;;;4970951;28;20180;-75
2022/07/22 06:39:12;;;;;;;12.93;10.70;;;26.20;99.90;;;;;;4971608;28;20216;-75
2022/07/22 06:41:37;;;;;;;12.20;11.10;;;26.20;99.90;;;;;;4970649;28;20736;-75
2022/07/22 06:44:03;;;;;;;11.30;10.30;;;26.30;99.90;;;;;;4971446;28;20271;-75
2022/07/22 06:46:28;;;;;;;11.70;10.70;;;26.20;99.90;;;;;;4971268;28;20655;-73
2022/07/22 06:48:54;;;;;;;12.30;11.10;;;26.20;99.90;;;;;;4970902;28;20507;-72
2022/07/22 06:51:20;;;;;;;12.53;11.23;;;26.20;99.90;;;;;;4970653;28;20204;-75
2022/07/22 06:53:45;;;;;;;11.37;10.37;;;26.20;99.90;;;;;;4971599;28;20218;-75
2022/07/22 06:56:11;;;;;;;15.50;10.83;;;26.30;99.90;;;;;;4972627;28;20203;-75
2022/07/22 06:58:36;;;;;;;13.93;10.33;;;26.50;99.90;;;;;;4974279;28;20263;-75
2022/07/22 07:01:02;;;;;;;13.40;11.23;;;26.80;99.90;;;;;;4973956;28;20568;-75
2022/07/22 07:03:27;;;;;;;11.77;10.63;;;26.90;99.90;;;;;;4975234;28;20168;-75
2022/07/22 07:05:53;;;;;;;11.57;10.50;;;27.20;99.90;;;;;;4975006;28;20593;-76
2022/07/22 07:08:18;;;;;;;12.40;11.23;;;27.20;99.90;;;;;;4974564;28;20180;-75
2022/07/22 07:10:44;;;;;;;12.23;11.03;;;27.10;99.90;;;;;;4974590;28;20187;-75
2022/07/22 07:13:10;;;;;;;11.53;10.53;;;27.10;99.90;;;;;;4974689;28;20685;-75
2022/07/22 07:15:35;;;;;;;11.23;10.27;;;27.20;99.90;;;;;;4973734;28;20212;-74
2022/07/22 07:18:01;;;;;;;11.33;10.23;;;27.00;99.90;;;;;;4974925;28;20174;-75
2022/07/22 07:20:27;;;;;;;11.83;10.33;;;27.00;99.90;;;;;;4974281;28;20263;-75
2022/07/22 07:22:53;;;;;;;10.17;9.13;;;27.20;99.90;;;;;;4974885;28;20747;-75
2022/07/22 07:25:19;;;;;;;12.60;9.40;;;27.40;99.90;;;;;;4975186;28;20664;-75
2022/07/22 07:27:44;;;;;;;11.93;9.17;;;27.70;99.90;;;;;;4974734;28;20789;-75
2022/07/22 07:30:11;;;;;;;11.27;10.20;;;27.90;99.90;;;;;;4974679;28;20423;-75
2022/07/22 07:32:37;;;;;;;11.10;9.53;;;27.90;99.90;;;;;;4973427;28;20219;-75
2022/07/22 07:35:03;;;;;;;11.57;9.67;;;27.90;99.90;;;;;;4974556;28;20553;-75
2022/07/22 07:37:29;;;;;;;9.63;8.40;;;28.20;99.90;;;;;;4974686;28;20399;-75
2022/07/22 07:39:54;;;;;;;10.60;9.03;;;28.50;99.90;;;;;;4974801;28;20788;-73
2022/07/22 07:42:20;;;;;;;12.17;10.97;;;28.60;99.90;;;;;;4974777;28;20572;-76
2022/07/22 07:44:45;;;;;;;15.83;10.30;;;28.60;99.90;;;;;;4957745;28;20180;-77
2022/07/22 07:47:13;;;;;;;10.83;9.90;;;28.30;99.90;;;;;;4974560;28;20680;-75
2022/07/22 07:49:38;;;;;;;10.97;9.07;;;28.20;99.90;;;;;;4974499;28;20263;-75
2022/07/22 07:52:04;;;;;;;10.80;9.70;;;28.30;99.90;;;;;;4973896;28;20525;-75
2022/07/22 07:54:29;;;;;;;15.63;10.57;;;28.70;99.90;;;;;;4974351;28;20207;-75
2022/07/22 07:56:55;;;;;;;11.10;10.00;;;28.90;99.90;;;;;;4973968;28;20668;-74
2022/07/22 07:59:20;;;;;;;9.90;9.00;;;28.90;99.90;;;;;;4974199;28;20172;-77
2022/07/22 08:01:46;;;;;;;13.67;10.87;;;29.10;99.90;;;;;;4972888;28;20680;-75
2022/07/22 08:04:11;;;;;;;11.17;10.17;;;28.90;99.90;;;;;;4974612;28;20376;-75
2022/07/22 08:06:38;;;;;;;12.07;9.50;;;29.10;99.90;;;;;;4973840;28;20720;-77
2022/07/22 08:09:04;;;;;;;14.87;10.53;;;29.00;99.90;;;;;;4973526;28;20263;-75
2022/07/22 08:11:29;;;;;;;11.17;10.10;;;28.90;99.90;;;;;;4973472;28;20542;-75
2022/07/22 08:13:54;;;;;;;10.27;9.17;;;28.90;99.90;;;;;;4973119;28;20595;-74
2022/07/22 08:16:20;;;;;;;9.70;8.90;;;29.10;99.90;;;;;;4973881;28;20307;-75
2022/07/22 08:18:45;;;;;;;19.33;10.80;;;29.40;99.90;;;;;;4974185;28;20180;-75
2022/07/22 08:21:11;;;;;;;12.20;10.23;;;29.50;99.90;;;;;;4973563;28;20595;-75
2022/07/22 08:23:36;;;;;;;11.70;10.70;;;29.90;99.90;;;;;;4973292;28;20180;-75
2022/07/22 08:26:02;;;;;;;10.70;9.73;;;29.90;99.90;;;;;;4973614;28;20195;-75
2022/07/22 08:28:28;;;;;;;11.17;10.10;;;29.80;99.90;;;;;;4973741;28;20263;-73
2022/07/22 08:30:53;;;;;;;17.77;9.30;;;29.70;99.90;;;;;;4973021;28;20612;-75
2022/07/22 08:33:19;;;;;;;10.63;9.60;;;30.10;99.90;;;;;;4973234;28;20598;-76
2022/07/22 08:35:45;;;;;;;10.73;8.90;;;30.50;99.90;;;;;;4973625;28;20229;-75
2022/07/22 08:38:11;;;;;;;10.57;9.50;;;30.90;99.90;;;;;;4973801;28;20223;-75
2022/07/22 08:40:36;;;;;;;12.70;10.20;;;31.00;99.90;;;;;;4972482;28;20296;-74
2022/07/22 08:43:03;;;;;;;15.37;11.00;;;30.70;99.90;;;;;;4973392;28;20180;-76
2022/07/22 08:45:30;;;;;;;11.60;10.50;;;30.70;99.90;;;;;;4973274;28;20191;-75
2022/07/22 08:47:56;;;;;;;11.57;10.53;;;30.80;99.90;;;;;;4973296;28;20506;-73
2022/07/22 08:50:21;;;;;;;11.83;10.60;;;30.90;99.90;;;;;;4973518;28;20975;-75
2022/07/22 08:52:47;;;;;;;11.80;9.53;;;30.70;99.90;;;;;;4971921;28;20246;-75
2022/07/22 08:55:13;;;;;;;12.30;10.17;;;30.50;99.90;;;;;;4973141;28;20257;-75
2022/07/22 08:57:45;;;;;;;10.70;9.67;;;31.00;99.90;;;;;;4973111;28;20591;-76
2022/07/22 09:00:15;;;;;;;11.40;9.23;;;31.40;99.90;;;;;;4973354;28;20172;-76
2022/07/22 09:02:42;;;;;;;11.73;9.70;;;32.00;99.90;;;;;;4971758;28;20436;-75
2022/07/22 09:05:10;;;;;;;10.87;9.87;;;32.30;99.90;;;;;;4973199;28;20427;-75
2022/07/22 09:07:39;;;;;;;10.57;9.77;;;32.40;99.90;;;;;;4972978;28;20412;-75
2022/07/22 09:10:07;;;;;;;10.37;9.50;;;32.50;99.90;;;;;;4973120;28;20427;-75
2022/07/22 09:12:34;;;;;;;9.90;8.27;;;32.50;99.90;;;;;;4971869;28;20491;-75
2022/07/22 09:15:01;;;;;;;8.93;8.13;;;32.60;99.90;;;;;;4972806;28;20807;-75
2022/07/22 09:17:34;;;;;;;9.20;7.33;;;33.10;99.90;;;;;;4972944;28;20412;-75
2022/07/22 09:20:00;;;;;;;8.97;8.17;;;33.50;99.90;;;;;;4971719;28;20494;-75
2022/07/22 09:22:44;;;;;;;10.20;9.17;;;33.90;99.90;;;;;;4971936;28;21027;-76
2022/07/22 09:25:30;;;;;;;12.00;9.03;;;34.20;99.90;;;;;;4972789;28;20466;-75
2022/07/22 09:28:08;;;;;;;8.93;8.13;;;34.00;99.90;;;;;;4972306;28;20519;-75
2022/07/22 09:30:53;;;;;;;10.50;8.50;;;33.80;99.90;;;;;;4971780;28;20462;-74
2022/07/22 09:33:20;;;;;;;10.20;9.30;;;33.90;99.90;;;;;;4972602;28;20800;-75
2022/07/22 09:35:47;;;;;;;10.10;9.13;;;34.10;99.90;;;;;;4972393;28;20498;-74
2022/07/22 09:38:14;;;;;;;9.57;8.67;;;34.10;99.90;;;;;;4972595;28;20415;-75
2022/07/22 09:40:49;;;;;;;8.93;8.13;;;34.40;99.90;;;;;;4971848;28;20840;-76
2022/07/22 09:43:17;;;;;;;8.07;7.47;;;34.50;99.90;;;;;;4971830;28;20439;-73
2022/07/22 09:45:50;;;;;;;8.87;8.07;;;34.50;99.90;;;;;;4954688;28;20431;-76
2022/07/22 09:48:18;;;;;;;9.10;8.30;;;34.90;99.90;;;;;;4972418;28;20416;-74
2022/07/22 09:50:44;;;;;;;8.80;8.00;;;34.80;99.90;;;;;;4954575;28;20431;-76
2022/07/22 09:53:09;;;;;;;11.57;7.43;;;34.90;99.90;;;;;;4972322;28;20420;-76
2022/07/22 09:55:38;;;;;;;8.60;7.87;;;35.40;99.90;;;;;;4971852;28;20998;-75
2022/07/22 09:58:05;;;;;;;10.10;8.13;;;35.80;99.90;;;;;;4971732;28;20259;-76
2022/07/22 10:00:31;;;;;;;10.80;8.67;;;36.00;99.90;;;;;;4971898;28;20419;-76
2022/07/22 10:03:01;;;;;;;8.00;7.33;;;36.10;99.90;;;;;;4971457;28;20437;-74
2022/07/22 10:05:29;;;;;;;8.67;7.80;;;35.90;99.90;;;;;;4972088;28;20199;-76
2022/07/22 10:07:56;;;;;;;10.77;6.97;;;35.60;99.90;;;;;;4971391;28;20829;-74
2022/07/22 10:10:27;;;;;;;9.50;7.10;;;35.50;99.90;;;;;;4971911;28;20427;-73
2022/07/22 10:12:56;;;;;;;9.00;8.03;;;35.80;99.60;;;;;;4971517;28;20951;-73
2022/07/22 10:15:22;;;;;;;8.10;7.40;;;36.10;99.40;;;;;;4971825;28;20465;-76
2022/07/22 10:17:51;;;;;;;9.03;8.33;;;36.40;99.90;;;;;;4972177;28;20451;-76
2022/07/22 10:20:19;;;;;;;8.67;7.80;;;36.30;97.60;;;;;;4971123;28;20417;-73
2022/07/22 10:22:51;;;;;;;7.13;6.53;;;35.80;98.00;;;;;;4971044;28;20764;-73
2022/07/22 10:25:18;;;;;;;7.80;6.80;;;36.00;99.60;;;;;;4971553;28;20415;-73
2022/07/22 10:28:05;;;;;;;8.20;7.57;;;36.30;98.60;;;;;;4971778;28;20415;-73
2022/07/22 10:30:38;;;;;;;8.23;7.63;;;36.30;98.70;;;;;;4971263;28;20517;-71
2022/07/22 10:33:11;;;;;;;8.30;6.90;;;36.10;98.30;;;;;;4971349;28;20538;-74
2022/07/22 10:36:00;;;;;;;7.57;6.90;;;36.50;98.40;;;;;;4971453;28;20471;-73
2022/07/22 10:38:27;;;;;;;7.70;6.97;;;36.60;97.30;;;;;;4971833;28;20852;-74
2022/07/22 10:40:59;;;;;;;8.23;7.53;;;36.40;97.70;;;;;;4970780;28;20434;-74
2022/07/22 10:43:27;;;;;;;8.53;7.70;;;36.50;96.20;;;;;;4971555;28;20447;-73
2022/07/22 10:45:58;;;;;;;9.50;8.50;;;36.50;97.50;;;;;;4973135;28;20478;-73
2022/07/22 10:48:45;;;;;;;8.37;7.53;;;36.00;96.40;;;;;;4969221;28;20526;-74
2022/07/22 10:51:15;;;;;;;7.87;7.20;;;36.10;97.00;;;;;;4969755;28;20808;-73
2022/07/22 10:54:02;;;;;;;8.67;7.87;;;35.70;96.10;;;;;;4970212;28;20901;-74
2022/07/22 10:56:33;;;;;;;9.77;7.77;;;35.80;96.70;;;;;;4969746;28;20677;-74
2022/07/22 10:59:14;;;;;;;8.67;7.67;;;35.40;96.50;;;;;;4971236;28;20411;-72
2022/07/22 11:01:43;;;;;;;8.43;7.33;;;34.50;96.80;;;;;;4964038;28;20538;-75
2022/07/22 11:04:18;;;;;;;9.30;8.10;;;34.50;97.90;;;;;;4971617;28;20434;-76
2022/07/22 11:06:49;;;;;;;8.20;7.47;;;34.50;97.70;;;;;;4971140;28;20411;-76
2022/07/22 11:09:16;;;;;;;8.57;7.67;;;34.60;97.10;;;;;;4971022;28;20438;-74
2022/07/22 11:11:44;;;;;;;7.47;6.97;;;34.60;98.00;;;;;;4970471;28;20446;-76
2022/07/22 11:14:19;;;;;;;8.90;8.00;;;34.90;98.60;;;;;;4971412;28;20944;-76
2022/07/22 11:16:47;;;;;;;7.27;6.67;;;34.90;98.40;;;;;;4953729;28;20415;-76
2022/07/22 11:19:13;;;;;;;7.70;7.10;;;34.90;98.20;;;;;;4971052;28;20420;-77
2022/07/22 11:21:39;;;;;;;8.23;7.43;;;35.00;99.00;;;;;;4970291;28;20799;-76
2022/07/22 11:24:07;;;;;;;9.60;8.80;;;34.70;96.50;;;;;;4970771;28;20661;-76
2022/07/22 11:26:53;;;;;;;8.40;7.70;;;34.30;98.00;;;;;;4971851;28;20502;-76
2022/07/22 11:29:33;;;;;;;9.10;8.20;;;34.00;97.00;;;;;;4972490;28;20411;-76
2022/07/22 11:32:00;;;;;;;8.67;7.90;;;33.70;97.50;;;;;;4970446;28;20491;-75
2022/07/22 11:34:27;;;;;;;8.57;7.77;;;33.20;99.20;;;;;;4970835;28;20455;-76
2022/07/22 11:36:53;;;;;;;9.53;8.63;;;33.10;98.10;;;;;;4971262;28;20423;-76
2022/07/22 11:39:25;;;;;;;9.40;7.83;;;32.60;97.60;;;;;;4971411;28;20415;-76
2022/07/22 11:41:52;;;;;;;9.20;7.93;;;32.30;98.80;;;;;;4970543;28;20431;-76
2022/07/22 11:44:27;;;;;;;8.37;7.50;;;32.90;99.90;;;;;;4971914;28;20556;-78
2022/07/22 11:46:53;;;;;;;9.43;7.67;;;33.30;98.70;;;;;;4974457;28;20907;-76
2022/07/22 11:49:21;;;;;;;12.03;8.10;;;33.70;98.20;;;;;;4974445;28;20430;-76
2022/07/22 11:51:47;;;;;;;8.43;7.67;;;33.80;98.50;;;;;;4973590;28;20203;-76
2022/07/22 11:54:13;;;;;;;8.20;7.40;;;33.90;98.40;;;;;;4957070;28;20427;-76
2022/07/22 11:56:39;;;;;;;8.27;7.60;;;33.90;96.30;;;;;;4974302;28;20732;-76
2022/07/22 11:59:06;;;;;;;8.80;8.00;;;33.70;96.10;;;;;;4974019;28;20926;-77
2022/07/22 12:01:36;;;;;;;8.73;7.83;;;33.20;97.70;;;;;;4960234;28;20207;-77
2022/07/22 12:04:07;;;;;;;8.73;8.03;;;33.00;97.60;;;;;;4977273;28;20421;-77
2022/07/22 12:06:38;;;;;;;8.40;7.50;;;32.80;97.80;;;;;;4964295;28;20432;-78
2022/07/22 12:09:09;;;;;;;8.60;7.77;;;32.80;97.70;;;;;;4924945;28;20573;-77
2022/07/22 12:11:38;;;;;;;10.63;8.23;;;32.70;98.50;;;;;;4971700;28;21012;-77
2022/07/22 12:14:13;;;;;;;9.07;7.43;;;32.80;98.10;;;;;;4972454;28;20537;-77
2022/07/22 12:16:40;;;;;;;8.43;7.63;;;33.00;99.30;;;;;;4972839;28;20955;-77
2022/07/22 12:19:13;;;;;;;8.40;7.70;;;32.90;98.40;;;;;;4973722;28;20833;-76
2022/07/22 12:22:04;;;;;;;7.67;7.07;;;32.50;98.20;;;;;;4963707;28;20459;-76
2022/07/22 12:24:39;;;;;;;8.33;7.63;;;32.60;99.60;;;;;;4972604;28;20456;-75
2022/07/22 12:27:09;;;;;;;8.43;7.63;;;32.80;98.80;;;;;;4972480;28;20438;-77
2022/07/22 12:29:35;;;;;;;7.13;6.33;;;32.60;98.00;;;;;;4972383;28;20479;-75
2022/07/22 12:32:04;;;;;;;8.73;7.00;;;32.60;99.10;;;;;;4971859;28;20557;-76
2022/07/22 12:34:35;;;;;;;8.33;7.57;;;32.70;98.90;;;;;;4921952;28;20404;-78
2022/07/22 12:37:18;;;;;;;7.47;6.70;;;32.90;98.70;;;;;;4936949;28;20463;-74
2022/07/22 12:39:57;;;;;;;10.03;6.60;;;32.90;98.10;;;;;;4972042;28;20455;-76
2022/07/22 12:42:25;;;;;;;7.30;6.70;;;32.90;97.40;;;;;;4972331;28;20443;-76
2022/07/22 12:45:06;;;;;;;9.23;8.27;;;32.50;98.10;;;;;;4973648;28;20415;-76
2022/07/22 12:47:38;;;;;;;8.30;7.50;;;32.30;97.70;;;;;;4973181;28;20427;-76
2022/07/22 12:50:24;;;;;;;12.53;7.30;;;32.20;98.10;;;;;;4973802;28;20522;-76
2022/07/22 12:52:52;;;;;;;8.57;7.67;;;32.30;98.30;;;;;;4970168;28;21042;-74
2022/07/22 12:55:18;;;;;;;8.37;7.00;;;32.20;97.10;;;;;;4971751;28;20499;-76
2022/07/22 12:57:44;;;;;;;7.60;6.83;;;32.20;97.60;;;;;;4972559;28;20423;-76
2022/07/22 13:00:11;;;;;;;8.27;7.57;;;32.10;98.10;;;;;;4973392;28;20411;-77
2022/07/22 13:02:36;;;;;;;7.20;6.70;;;32.20;98.00;;;;;;4972683;28;20689;-78
2022/07/22 13:05:02;;;;;;;8.00;7.20;;;32.40;98.00;;;;;;4972521;28;20418;-77
2022/07/22 13:07:28;;;;;;;7.33;6.83;;;32.50;97.10;;;;;;4973103;28;20698;-77
2022/07/22 13:09:53;;;;;;;6.57;6.07;;;32.60;98.20;;;;;;4972998;28;20423;-77
2022/07/22 13:12:19;;;;;;;8.73;6.03;;;32.60;95.90;;;;;;4971863;28;20204;-77
2022/07/22 13:14:44;;;;;;;8.27;7.57;;;32.50;95.00;;;;;;4972713;28;20204;-76
2022/07/22 13:17:12;;;;;;;7.10;6.50;;;32.30;96.90;;;;;;4972806;28;20186;-77
2022/07/22 13:19:37;;;;;;;7.87;7.30;;;32.00;97.40;;;;;;4972780;28;20609;-77
2022/07/22 13:22:03;;;;;;;8.00;7.40;;;31.90;97.90;;;;;;4971923;28;20530;-77
2022/07/22 13:24:28;;;;;;;7.17;6.57;;;31.90;97.60;;;;;;4972342;28;20770;-77
2022/07/22 13:26:54;;;;;;;7.50;6.90;;;32.00;97.80;;;;;;4972643;28;20584;-77
2022/07/22 13:29:20;;;;;;;8.00;6.40;;;32.10;97.10;;;;;;4972722;28;20209;-78
2022/07/22 13:31:46;;;;;;;9.93;7.40;;;31.90;96.90;;;;;;4954549;28;20219;-77
2022/07/22 13:34:11;;;;;;;6.80;6.30;;;31.90;96.70;;;;;;4972528;28;20412;-77
2022/07/22 13:36:37;;;;;;;6.67;6.17;;;31.90;97.00;;;;;;4972207;28;20172;-78
2022/07/22 13:39:04;;;;;;;7.97;6.03;;;32.00;96.90;;;;;;4972531;28;20186;-77
2022/07/22 13:41:30;;;;;;;7.73;7.13;;;32.00;97.80;;;;;;4971996;28;20188;-77
2022/07/22 13:43:55;;;;;;;6.67;6.17;;;32.10;97.00;;;;;;4971839;28;20415;-78
2022/07/22 13:46:21;;;;;;;6.37;5.87;;;32.10;97.30;;;;;;4972360;28;20247;-76
2022/07/22 13:48:47;;;;;;;6.90;6.37;;;32.00;96.90;;;;;;4972249;28;20172;-77
2022/07/22 13:51:14;;;;;;;6.53;5.97;;;32.00;97.60;;;;;;4971859;28;20211;-77
2022/07/22 13:53:40;;;;;;;7.23;6.57;;;32.00;97.20;;;;;;4954940;28;20198;-77
2022/07/22 13:56:09;;;;;;;6.87;6.40;;;32.00;98.20;;;;;;4971770;28;20455;-77
2022/07/22 13:58:35;;;;;;;6.80;6.17;;;32.10;97.20;;;;;;4972239;28;20250;-78
2022/07/22 14:01:00;;;;;;;6.80;6.20;;;32.10;96.50;;;;;;4971291;28;20479;-76
2022/07/22 14:03:26;;;;;;;9.90;6.17;;;31.90;95.60;;;;;;4972265;28;20168;-77
2022/07/22 14:05:52;;;;;;;6.30;5.90;;;31.70;95.30;;;;;;4971263;28;20184;-78
2022/07/22 14:08:17;;;;;;;7.23;6.53;;;31.60;95.80;;;;;;4971854;28;20187;-77
2022/07/22 14:10:43;;;;;;;7.83;6.87;;;31.60;95.50;;;;;;4971070;28;20180;-77